createdAt,value
2018-06-01T00:00:27.301Z,21.10
2018-06-01T00:02:55.603Z,21.00
2018-06-01T00:05:23.172Z,21.00
2018-06-01T00:07:50.758Z,20.90
2018-06-01T00:10:18.323Z,20.90
2018-06-01T00:12:45.848Z,21.00
2018-06-01T00:15:13.497Z,21.00
2018-06-01T00:17:40.993Z,21.00
2018-06-01T00:20:08.552Z,21.00
2018-06-01T00:22:36.110Z,21.00
2018-06-01T00:25:03.663Z,21.00
2018-06-01T00:27:31.935Z,20.90
2018-06-01T00:29:59.500Z,20.90
2018-06-01T00:32:27.040Z,20.80
2018-06-01T00:34:54.570Z,20.80
2018-06-01T00:37:22.153Z,20.80
2018-06-01T00:39:50.432Z,20.70
2018-06-01T00:42:17.951Z,20.70
2018-06-01T00:44:46.234Z,20.70
2018-06-01T00:47:13.786Z,20.60
2018-06-01T00:49:41.330Z,20.70
2018-06-01T00:52:08.870Z,20.70
2018-06-01T00:54:48.369Z,20.60
2018-06-01T00:57:15.924Z,20.60
2018-06-01T00:59:43.488Z,20.70
2018-06-01T01:02:11.038Z,20.60
2018-06-01T01:04:38.561Z,20.70
2018-06-01T01:07:06.883Z,20.60
2018-06-01T01:09:34.417Z,20.60
2018-06-01T01:12:01.930Z,20.60
2018-06-01T01:14:29.496Z,20.60
2018-06-01T01:16:57.108Z,20.60
2018-06-01T01:19:24.645Z,20.60
2018-06-01T01:21:52.216Z,20.70
2018-06-01T01:24:19.743Z,20.70
2018-06-01T01:26:48.009Z,20.70
2018-06-01T01:29:16.309Z,20.60
2018-06-01T01:31:43.870Z,20.60
2018-06-01T01:34:11.429Z,20.60
2018-06-01T01:36:39.703Z,20.70
2018-06-01T01:39:07.249Z,20.70
2018-06-01T01:41:35.654Z,20.70
2018-06-01T01:44:03.216Z,20.70
2018-06-01T01:46:30.721Z,20.70
2018-06-01T01:48:58.257Z,20.70
2018-06-01T01:51:25.778Z,20.60
2018-06-01T01:53:53.304Z,20.60
2018-06-01T01:56:21.629Z,20.60
2018-06-01T01:58:49.154Z,20.60
2018-06-01T02:01:17.440Z,20.50
2018-06-01T02:03:44.976Z,20.50
2018-06-01T02:06:13.331Z,20.50
2018-06-01T02:08:40.854Z,20.50
2018-06-01T02:11:08.581Z,20.50
2018-06-01T02:13:36.902Z,20.60
2018-06-01T02:16:04.448Z,20.50
2018-06-01T02:18:31.959Z,20.50
2018-06-01T02:21:00.249Z,20.40
2018-06-01T02:23:28.609Z,20.40
2018-06-01T02:25:56.216Z,20.40
2018-06-01T02:28:23.731Z,20.50
2018-06-01T02:30:52.013Z,20.50
2018-06-01T02:33:20.330Z,20.50
2018-06-01T02:35:47.875Z,20.50
2018-06-01T02:38:15.405Z,20.50
2018-06-01T02:40:43.664Z,20.40
2018-06-01T02:43:11.229Z,20.40
2018-06-01T02:45:38.753Z,20.50
2018-06-01T02:48:06.285Z,20.50
2018-06-01T02:50:33.803Z,20.50
2018-06-01T02:53:01.512Z,20.60
2018-06-01T02:55:29.040Z,20.60
2018-06-01T02:57:57.370Z,20.60
2018-06-01T03:00:24.959Z,20.60
2018-06-01T03:02:52.610Z,20.60
2018-06-01T03:05:20.119Z,20.70
2018-06-01T03:07:47.666Z,20.70
2018-06-01T03:10:15.198Z,20.70
2018-06-01T03:12:43.481Z,20.60
2018-06-01T03:15:11.749Z,20.60
2018-06-01T03:17:40.037Z,20.50
2018-06-01T03:20:08.444Z,20.40
2018-06-01T03:22:35.962Z,20.30
2018-06-01T03:25:04.265Z,20.10
2018-06-01T03:27:31.778Z,20.00
2018-06-01T03:29:59.423Z,19.80
2018-06-01T03:32:26.928Z,19.70
2018-06-01T03:34:55.231Z,19.30
2018-06-01T03:37:22.766Z,19.30
2018-06-01T03:39:50.338Z,19.40
2018-06-01T03:42:17.852Z,19.30
2018-06-01T03:44:45.460Z,18.80
2018-06-01T03:47:13.227Z,18.70
2018-06-01T03:49:40.756Z,18.60
2018-06-01T03:52:09.024Z,18.00
2018-06-01T03:54:37.297Z,18.20
2018-06-01T03:57:05.709Z,18.10
2018-06-01T03:59:33.202Z,18.10
2018-06-01T04:02:00.805Z,18.10
2018-06-01T04:04:28.361Z,18.00
2018-06-01T04:06:55.921Z,18.00
2018-06-01T04:09:28.000Z,18.20
2018-06-01T04:11:55.568Z,18.20
2018-06-01T04:14:23.096Z,18.30
2018-06-01T04:16:51.462Z,18.20
2018-06-01T04:19:19.733Z,18.30
2018-06-01T04:21:48.141Z,18.30
2018-06-01T04:24:15.639Z,18.30
2018-06-01T04:26:43.245Z,18.30
2018-06-01T04:29:11.621Z,18.40
2018-06-01T04:31:39.924Z,18.40
2018-06-01T04:36:34.386Z,18.30
2018-06-01T04:39:02.805Z,18.30
2018-06-01T04:41:30.296Z,18.30
2018-06-01T04:43:57.849Z,18.30
2018-06-01T04:46:25.380Z,18.40
2018-06-01T04:48:52.955Z,18.30
2018-06-01T04:51:20.519Z,18.20
2018-06-01T04:53:48.047Z,18.30
2018-06-01T04:56:15.609Z,18.40
2018-06-01T04:58:43.144Z,18.40
2018-06-01T05:01:10.657Z,18.50
2018-06-01T05:03:38.190Z,18.50
2018-06-01T05:06:05.693Z,18.50
2018-06-01T05:08:34.037Z,18.50
2018-06-01T05:11:01.886Z,18.50
2018-06-01T05:13:29.434Z,18.60
2018-06-01T05:15:56.945Z,18.60
2018-06-01T05:18:24.554Z,18.60
2018-06-01T05:20:52.121Z,18.60
2018-06-01T05:23:19.660Z,18.60
2018-06-01T05:25:47.224Z,18.60
2018-06-01T05:28:14.851Z,18.50
2018-06-01T05:30:43.125Z,18.50
2018-06-01T05:33:10.636Z,18.50
2018-06-01T05:35:38.197Z,18.60
2018-06-01T05:38:05.723Z,18.70
2018-06-01T05:40:33.241Z,18.70
2018-06-01T05:43:00.776Z,18.70
2018-06-01T05:45:28.420Z,18.70
2018-06-01T05:47:55.927Z,18.70
2018-06-01T05:50:24.234Z,18.60
2018-06-01T05:52:51.760Z,18.60
2018-06-01T05:55:19.330Z,18.60
2018-06-01T05:57:47.648Z,18.60
2018-06-01T06:00:15.143Z,18.60
2018-06-01T06:02:42.689Z,18.60
2018-06-01T06:05:10.205Z,18.60
2018-06-01T06:07:37.772Z,18.70
2018-06-01T06:10:05.330Z,18.80
2018-06-01T06:12:32.856Z,18.90
2018-06-01T06:15:01.237Z,19.00
2018-06-01T06:17:29.535Z,19.00
2018-06-01T06:19:57.057Z,19.00
2018-06-01T06:22:24.568Z,19.10
2018-06-01T06:24:52.122Z,19.20
2018-06-01T06:27:19.656Z,19.30
2018-06-01T06:29:48.021Z,19.70
2018-06-01T06:32:16.399Z,19.80
2018-06-01T06:34:44.816Z,20.00
2018-06-01T06:37:12.377Z,20.00
2018-06-01T06:39:39.907Z,20.50
2018-06-01T06:42:07.439Z,21.10
2018-06-01T06:44:35.047Z,21.00
2018-06-01T06:47:02.565Z,20.80
2018-06-01T06:49:30.080Z,20.70
2018-06-01T06:51:57.605Z,20.40
2018-06-01T06:54:25.151Z,20.20
2018-06-01T06:56:53.419Z,20.20
2018-06-01T06:59:21.704Z,20.30
2018-06-01T07:01:50.116Z,20.30
2018-06-01T07:04:17.629Z,20.30
2018-06-01T07:06:46.041Z,20.50
2018-06-01T07:09:13.591Z,20.50
2018-06-01T07:11:41.104Z,20.50
2018-06-01T07:14:08.615Z,20.50
2018-06-01T07:16:36.163Z,20.40
2018-06-01T07:19:03.689Z,20.40
2018-06-01T07:21:31.965Z,20.20
2018-06-01T07:24:00.488Z,20.00
2018-06-01T07:26:27.980Z,20.00
2018-06-01T07:28:55.507Z,20.00
2018-06-01T07:31:23.120Z,19.90
2018-06-01T07:33:51.400Z,19.80
2018-06-01T07:36:19.702Z,19.90
2018-06-01T07:38:47.271Z,19.90
2018-06-01T07:41:14.825Z,19.90
2018-06-01T07:43:42.333Z,19.80
2018-06-01T07:46:10.639Z,19.70
2018-06-01T07:48:38.165Z,19.70
2018-06-01T07:51:05.669Z,19.70
2018-06-01T07:53:33.252Z,19.80
2018-06-01T07:56:00.765Z,19.80
2018-06-01T07:58:29.057Z,20.00
2018-06-01T08:00:56.969Z,20.00
2018-06-01T08:03:24.459Z,20.20
2018-06-01T08:05:52.782Z,20.30
2018-06-01T08:08:20.332Z,20.30
2018-06-01T08:10:47.852Z,20.40
2018-06-01T08:13:16.129Z,20.40
2018-06-01T08:15:45.011Z,20.30
2018-06-01T08:18:13.328Z,20.20
2018-06-01T08:20:40.836Z,20.20
2018-06-01T08:23:08.408Z,20.20
2018-06-01T08:25:36.685Z,20.30
2018-06-01T08:28:05.102Z,20.40
2018-06-01T08:30:32.761Z,20.40
2018-06-01T08:33:00.296Z,20.30
2018-06-01T08:35:28.081Z,20.30
2018-06-01T08:37:55.633Z,20.20
2018-06-01T08:40:23.197Z,20.30
2018-06-01T08:42:50.712Z,20.20
2018-06-01T08:45:19.056Z,20.30
2018-06-01T08:47:46.562Z,20.30
2018-06-01T08:50:14.847Z,20.00
2018-06-01T08:52:42.384Z,20.00
2018-06-01T08:55:10.669Z,19.80
2018-06-01T08:57:38.965Z,19.80
2018-06-01T09:00:06.472Z,19.70
2018-06-01T09:02:33.973Z,19.70
2018-06-01T09:05:01.485Z,19.70
2018-06-01T09:07:29.004Z,19.60
2018-06-01T09:09:56.534Z,19.60
2018-06-01T09:12:24.812Z,19.70
2018-06-01T09:14:52.414Z,19.70
2018-06-01T09:17:19.936Z,19.70
2018-06-01T09:19:47.491Z,19.70
2018-06-01T09:22:15.817Z,19.70
2018-06-01T09:24:43.304Z,19.60
2018-06-01T09:27:11.596Z,19.60
2018-06-01T09:29:39.186Z,19.60
2018-06-01T09:32:06.704Z,19.60
2018-06-01T09:34:34.977Z,19.60
2018-06-01T09:37:03.258Z,19.50
2018-06-01T09:39:31.567Z,19.50
2018-06-01T09:41:59.061Z,19.50
2018-06-01T09:44:28.142Z,19.40
2018-06-01T09:46:55.665Z,19.40
2018-06-01T09:49:23.230Z,19.40
2018-06-01T09:51:50.756Z,19.40
2018-06-01T09:54:19.029Z,19.30
2018-06-01T09:56:47.334Z,19.30
2018-06-01T09:59:14.863Z,19.20
2018-06-01T10:01:43.172Z,19.20
2018-06-01T10:04:10.712Z,19.20
2018-06-01T10:06:38.507Z,19.20
2018-06-01T10:09:06.057Z,19.10
2018-06-01T10:11:33.695Z,19.10
2018-06-01T10:14:01.225Z,19.10
2018-06-01T10:16:28.751Z,19.10
2018-06-01T10:18:56.292Z,19.10
2018-06-01T10:21:23.951Z,19.00
2018-06-01T10:23:51.502Z,18.80
2018-06-01T10:26:19.093Z,18.80
2018-06-01T10:28:46.604Z,18.80
2018-06-01T10:31:14.121Z,18.70
2018-06-01T10:33:41.767Z,18.70
2018-06-01T10:36:09.304Z,18.70
2018-06-01T10:38:36.822Z,18.70
2018-06-01T10:41:05.239Z,18.70
2018-06-01T10:43:32.726Z,18.60
2018-06-01T10:46:00.259Z,18.70
2018-06-01T10:48:27.799Z,18.60
2018-06-01T10:50:55.304Z,18.60
2018-06-01T10:53:22.849Z,18.60
2018-06-01T10:55:50.363Z,18.60
2018-06-01T10:58:17.913Z,18.50
2018-06-01T11:00:46.168Z,18.50
2018-06-01T11:03:14.700Z,18.50
2018-06-01T11:05:47.506Z,18.50
2018-06-01T11:08:16.706Z,18.40
2018-06-01T11:10:44.248Z,18.40
2018-06-01T11:13:11.788Z,18.50
2018-06-01T11:15:39.317Z,18.50
2018-06-01T11:18:07.647Z,18.50
2018-06-01T11:20:35.179Z,18.50
2018-06-01T11:23:02.702Z,18.50
2018-06-01T11:25:31.017Z,18.50
2018-06-01T11:27:58.525Z,18.50
2018-06-01T11:30:26.045Z,18.50
2018-06-01T11:32:53.580Z,18.50
2018-06-01T11:35:21.132Z,18.50
2018-06-01T11:37:48.650Z,18.50
2018-06-01T11:40:16.215Z,18.60
2018-06-01T11:42:43.823Z,18.60
2018-06-01T11:45:11.373Z,18.60
2018-06-01T11:47:38.866Z,18.60
2018-06-01T11:50:06.487Z,18.60
2018-06-01T11:52:34.042Z,18.50
2018-06-01T11:55:01.578Z,18.50
2018-06-01T11:57:29.890Z,18.50
2018-06-01T11:59:57.419Z,18.50
2018-06-01T12:02:25.698Z,18.50
2018-06-01T12:04:54.007Z,18.50
2018-06-01T12:07:21.532Z,18.50
2018-06-01T12:09:49.909Z,18.60
2018-06-01T12:12:18.222Z,18.60
2018-06-01T12:14:45.724Z,18.50
2018-06-01T12:17:14.024Z,18.50
2018-06-01T12:19:42.309Z,18.50
2018-06-01T12:22:09.813Z,18.40
2018-06-01T12:24:37.384Z,18.50
2018-06-01T12:27:05.112Z,18.50
2018-06-01T12:29:32.640Z,18.40
2018-06-01T12:32:00.167Z,18.40
2018-06-01T12:34:27.701Z,18.40
2018-06-01T12:36:55.252Z,18.40
2018-06-01T12:39:22.809Z,18.40
2018-06-01T12:41:50.311Z,18.40
2018-06-01T12:44:18.593Z,18.30
2018-06-01T12:46:46.882Z,18.30
2018-06-01T12:49:14.390Z,18.20
2018-06-01T12:51:41.943Z,18.20
2018-06-01T12:54:09.999Z,18.20
2018-06-01T12:56:38.341Z,18.30
2018-06-01T12:59:05.910Z,18.20
2018-06-01T13:01:33.476Z,18.20
2018-06-01T13:04:12.056Z,18.30
2018-06-01T13:06:39.869Z,18.30
2018-06-01T13:09:07.429Z,18.30
2018-06-01T13:11:34.985Z,18.30
2018-06-01T13:14:02.494Z,18.30
2018-06-01T13:16:31.364Z,18.30
2018-06-01T13:18:58.852Z,18.30
2018-06-01T13:21:27.165Z,18.30
2018-06-01T13:23:54.780Z,18.30
2018-06-01T13:26:23.113Z,18.30
2018-06-01T13:28:50.826Z,18.30
2018-06-01T13:31:19.924Z,18.30
2018-06-01T13:33:48.239Z,18.30
2018-06-01T13:36:25.681Z,18.30
2018-06-01T13:38:54.096Z,18.30
2018-06-01T13:41:23.734Z,18.30
2018-06-01T13:43:51.309Z,18.30
2018-06-01T13:46:18.903Z,18.20
2018-06-01T13:48:46.413Z,18.10
2018-06-01T13:51:16.632Z,18.10
2018-06-01T13:53:44.285Z,18.00
2018-06-01T13:56:12.080Z,18.10
2018-06-01T13:58:40.386Z,18.10
2018-06-01T14:01:08.059Z,18.00
2018-06-01T14:03:35.630Z,18.00
2018-06-01T14:06:04.044Z,18.00
2018-06-01T14:08:31.633Z,17.90
2018-06-01T14:10:59.222Z,18.00
2018-06-01T14:13:26.739Z,18.00
2018-06-01T14:15:55.065Z,17.90
2018-06-01T14:18:22.559Z,17.90
2018-06-01T14:20:50.843Z,18.10
2018-06-01T14:23:18.380Z,18.10
2018-06-01T14:25:45.907Z,18.20
2018-06-01T14:28:13.539Z,18.20
2018-06-01T14:30:41.651Z,18.20
2018-06-01T14:33:09.389Z,18.20
2018-06-01T14:35:36.880Z,18.20
2018-06-01T14:38:04.502Z,18.20
2018-06-01T14:40:32.043Z,18.10
2018-06-01T14:43:00.337Z,18.10
2018-06-01T14:45:27.836Z,18.00
2018-06-01T14:47:56.097Z,18.00
2018-06-01T14:50:23.732Z,18.10
2018-06-01T14:52:51.269Z,18.10
2018-06-01T14:55:18.856Z,18.20
2018-06-01T14:57:46.414Z,18.20
2018-06-01T15:00:14.448Z,18.30
2018-06-01T15:02:42.725Z,18.20
2018-06-01T15:05:11.009Z,18.00
2018-06-01T15:07:38.561Z,18.10
2018-06-01T15:10:06.150Z,18.00
2018-06-01T15:12:33.704Z,18.10
2018-06-01T15:15:01.234Z,18.10
2018-06-01T15:17:29.594Z,17.80
2018-06-01T15:19:57.962Z,17.80
2018-06-01T15:22:25.461Z,17.70
2018-06-01T15:24:53.130Z,17.70
2018-06-01T15:27:20.692Z,17.60
2018-06-01T15:29:48.227Z,17.60
2018-06-01T15:32:16.493Z,17.60
2018-06-01T15:34:44.787Z,17.60
2018-06-01T15:37:12.332Z,17.60
2018-06-01T15:39:39.878Z,17.50
2018-06-01T15:42:07.473Z,17.40
2018-06-01T15:44:35.016Z,17.40
2018-06-01T15:47:05.700Z,17.50
2018-06-01T15:49:33.310Z,17.40
2018-06-01T15:52:00.886Z,17.50
2018-06-01T15:54:28.465Z,17.50
2018-06-01T15:56:56.925Z,17.60
2018-06-01T16:01:58.450Z,17.50
2018-06-01T16:04:25.993Z,17.50
2018-06-01T16:06:53.549Z,17.40
2018-06-01T16:09:21.092Z,17.40
2018-06-01T16:11:48.658Z,17.40
2018-06-01T16:14:17.151Z,17.50
2018-06-01T16:16:44.654Z,17.40
2018-06-01T16:19:12.297Z,17.30
2018-06-01T16:21:39.865Z,17.30
2018-06-01T16:24:07.382Z,17.30
2018-06-01T16:26:34.981Z,17.20
2018-06-01T16:29:03.271Z,17.30
2018-06-01T16:31:30.837Z,17.20
2018-06-01T16:33:58.333Z,17.30
2018-06-01T16:36:25.932Z,17.30
2018-06-01T16:38:53.474Z,17.10
2018-06-01T16:41:21.921Z,17.10
2018-06-01T16:43:49.455Z,17.10
2018-06-01T16:46:16.971Z,17.10
2018-06-01T16:48:45.284Z,17.10
2018-06-01T16:51:12.800Z,17.00
2018-06-01T16:53:41.101Z,17.20
2018-06-01T16:56:08.657Z,17.10
2018-06-01T16:58:36.231Z,17.10
2018-06-01T17:01:03.884Z,17.10
2018-06-01T17:03:31.785Z,17.20
2018-06-01T17:05:59.358Z,17.20
2018-06-01T17:08:27.242Z,17.30
2018-06-01T17:10:55.564Z,17.30
2018-06-01T17:13:23.098Z,17.20
2018-06-01T17:15:50.638Z,17.20
2018-06-01T17:18:19.062Z,17.20
2018-06-01T17:20:46.811Z,17.10
2018-06-01T17:23:14.344Z,17.20
2018-06-01T17:25:42.631Z,17.20
2018-06-01T17:28:10.179Z,17.10
2018-06-01T17:30:37.742Z,17.20
2018-06-01T17:33:05.270Z,17.20
2018-06-01T17:35:32.805Z,17.20
2018-06-01T17:38:00.391Z,17.20
2018-06-01T17:40:27.952Z,17.20
2018-06-01T17:42:56.266Z,17.20
2018-06-01T17:45:23.806Z,17.20
2018-06-01T17:47:52.157Z,17.20
2018-06-01T17:50:19.681Z,17.20
2018-06-01T17:52:47.230Z,17.20
2018-06-01T17:55:14.826Z,17.20
2018-06-01T17:57:42.430Z,17.20
2018-06-01T18:00:10.027Z,17.20
2018-06-01T18:02:37.564Z,17.20
2018-06-01T18:05:05.124Z,17.30
2018-06-01T18:07:32.778Z,17.20
2018-06-01T18:10:00.311Z,17.20
2018-06-01T18:12:29.162Z,17.20
2018-06-01T18:14:56.749Z,17.20
2018-06-01T18:17:25.036Z,17.20
2018-06-01T18:19:53.355Z,17.20
2018-06-01T18:22:21.029Z,17.20
2018-06-01T18:24:48.701Z,17.20
2018-06-01T18:27:16.403Z,17.20
2018-06-01T18:29:44.032Z,17.20
2018-06-01T18:32:11.595Z,17.20
2018-06-01T18:34:39.189Z,17.20
2018-06-01T18:37:06.787Z,17.20
2018-06-01T18:39:34.371Z,17.20
2018-06-01T18:42:01.906Z,17.20
2018-06-01T18:44:29.505Z,17.20
2018-06-01T18:46:57.818Z,17.20
2018-06-01T18:49:25.482Z,17.20
2018-06-01T18:51:53.173Z,17.20
2018-06-01T18:54:20.811Z,17.20
2018-06-01T18:56:48.530Z,17.20
2018-06-01T18:59:17.008Z,17.10
2018-06-01T19:01:45.413Z,17.10
2018-06-01T19:04:13.212Z,17.10
2018-06-01T19:06:40.913Z,17.10
2018-06-01T19:09:09.385Z,17.10
2018-06-01T19:11:36.988Z,17.10
2018-06-01T19:14:04.512Z,17.10
2018-06-01T19:16:32.172Z,17.10
2018-06-01T19:19:00.577Z,17.10
2018-06-01T19:21:28.118Z,17.10
2018-06-01T19:23:55.647Z,17.10
2018-06-01T19:26:23.226Z,17.10
2018-06-01T19:28:51.607Z,17.10
2018-06-01T19:31:19.891Z,17.10
2018-06-01T19:33:47.443Z,17.00
2018-06-01T19:36:15.046Z,17.10
2018-06-01T19:38:42.581Z,17.10
2018-06-01T19:41:10.103Z,17.00
2018-06-01T19:43:38.443Z,17.00
2018-06-01T19:46:06.116Z,17.00
2018-06-01T19:48:33.649Z,17.00
2018-06-01T19:51:01.191Z,17.00
2018-06-01T19:53:28.781Z,16.90
2018-06-01T19:55:56.481Z,16.90
2018-06-01T19:58:24.822Z,16.90
2018-06-01T20:00:52.390Z,16.80
2018-06-01T20:03:20.048Z,16.80
2018-06-01T20:05:47.569Z,16.80
2018-06-01T20:08:15.213Z,16.80
2018-06-01T20:10:43.525Z,16.80
2018-06-01T20:13:11.176Z,16.70
2018-06-01T20:15:38.717Z,16.70
2018-06-01T20:18:06.382Z,16.80
2018-06-01T20:20:34.061Z,16.70
2018-06-01T20:23:01.651Z,16.80
2018-06-01T20:25:29.197Z,16.70
2018-06-01T20:27:57.118Z,16.70
2018-06-01T20:30:24.788Z,16.70
2018-06-01T20:32:52.401Z,16.70
2018-06-01T20:35:21.009Z,16.70
2018-06-01T20:37:49.379Z,16.70
2018-06-01T20:40:16.898Z,16.70
2018-06-01T20:42:44.490Z,16.70
2018-06-01T20:45:12.134Z,16.70
2018-06-01T20:47:39.728Z,16.70
2018-06-01T20:50:08.059Z,16.70
2018-06-01T20:52:45.620Z,16.70
2018-06-01T20:55:13.157Z,16.70
2018-06-01T20:57:40.722Z,16.70
2018-06-01T21:00:08.275Z,16.60
2018-06-01T21:02:35.840Z,16.60
2018-06-01T21:05:03.740Z,16.60
2018-06-01T21:07:31.313Z,16.70
2018-06-01T21:09:58.893Z,16.60
2018-06-01T21:12:27.621Z,16.60
2018-06-01T21:14:55.232Z,16.60
2018-06-01T21:17:22.870Z,16.60
2018-06-01T21:19:50.405Z,16.60
2018-06-01T21:22:17.925Z,16.60
2018-06-01T21:24:46.229Z,16.60
2018-06-01T21:27:13.929Z,16.60
2018-06-01T21:29:41.491Z,16.60
2018-06-01T21:32:09.052Z,16.60
2018-06-01T21:34:36.592Z,16.60
2018-06-01T21:37:04.230Z,16.60
2018-06-01T21:39:31.765Z,16.60
2018-06-01T21:41:59.283Z,16.60
2018-06-01T21:44:26.840Z,16.60
2018-06-01T21:46:54.382Z,16.70
2018-06-01T21:49:21.907Z,16.70
2018-06-01T21:51:49.466Z,16.70
2018-06-01T21:54:17.003Z,16.70
2018-06-01T21:56:45.303Z,16.70
2018-06-01T21:59:12.961Z,16.60
2018-06-01T22:01:40.508Z,16.60
2018-06-01T22:04:08.028Z,16.60
2018-06-01T22:06:35.607Z,16.60
2018-06-01T22:09:03.914Z,16.60
2018-06-01T22:11:31.439Z,16.60
2018-06-01T22:13:59.739Z,16.60
2018-06-01T22:16:27.309Z,16.60
2018-06-01T22:18:54.848Z,16.60
2018-06-01T22:21:23.121Z,16.50
2018-06-01T22:23:50.667Z,16.50
2018-06-01T22:26:18.208Z,16.50
2018-06-01T22:28:45.778Z,16.50
2018-06-01T22:31:14.087Z,16.50
2018-06-01T22:33:41.681Z,16.50
2018-06-01T22:36:09.247Z,16.50
2018-06-01T22:38:36.764Z,16.60
2018-06-01T22:41:04.365Z,16.60
2018-06-01T22:43:31.899Z,16.60
2018-06-01T22:45:59.446Z,16.60
2018-06-01T22:48:26.998Z,16.70
2018-06-01T22:50:54.560Z,16.70
2018-06-01T22:53:22.094Z,16.70
2018-06-01T22:55:50.537Z,16.80
2018-06-01T22:58:18.104Z,16.70
2018-06-01T23:00:45.601Z,16.70
2018-06-01T23:03:13.140Z,16.70
2018-06-01T23:05:41.456Z,16.70
2018-06-01T23:08:09.017Z,16.70
2018-06-01T23:10:36.559Z,16.80
2018-06-01T23:13:04.178Z,16.80
2018-06-01T23:15:32.506Z,17.10
2018-06-01T23:18:00.044Z,17.10
2018-06-01T23:20:27.602Z,17.30
2018-06-01T23:22:55.145Z,17.30
2018-06-01T23:25:23.449Z,17.40
2018-06-01T23:27:50.987Z,17.30
2018-06-01T23:30:19.282Z,17.40
2018-06-01T23:32:46.813Z,17.40
2018-06-01T23:35:15.141Z,17.40
2018-06-01T23:37:42.657Z,17.40
2018-06-01T23:40:10.192Z,17.30
2018-06-01T23:42:37.728Z,17.20
2018-06-01T23:45:05.275Z,17.30
2018-06-01T23:47:32.837Z,17.20
2018-06-01T23:50:00.573Z,17.30
2018-06-01T23:52:28.129Z,17.30
2018-06-01T23:54:55.722Z,17.30
2018-06-01T23:57:23.254Z,17.30
2018-06-01T23:59:50.821Z,17.30
